Time,TemperatureF,DewpointF,PressureIn,WindDirection,WindDirectionDegrees,WindSpeedMPH,WindSpeedGustMPH,Humidity,HourlyPrecipIn,Conditions,Clouds,dailyrainin,SoftwareType,DateUTC
2013-07-22 00:00:00,57.9,56.5,29.81,ESE,112,0.0,0.0,95,0.00,,---,0.00,VWS V14.01,2013-07-22 05:00:00,
2013-07-22 00:30:00,57.1,55.7,29.80,ESE,112,0.0,0.0,95,0.00,,---,0.00,VWS V14.01,2013-07-22 05:30:00,
2013-07-22 01:00:00,56.4,55.0,29.80,ESE,112,0.0,0.0,95,0.00,,---,0.00,VWS V14.01,2013-07-22 06:00:00,
2013-07-22 01:30:00,56.1,55.0,29.78,ESE,112,0.0,0.0,96,0.00,,---,0.00,VWS V14.01,2013-07-22 06:30:00,
2013-07-22 02:00:00,55.6,54.8,29.77,ESE,112,0.0,0.0,97,0.00,,---,0.00,VWS V14.01,2013-07-22 07:00:00,
2013-07-22 02:30:00,54.5,53.4,29.78,ESE,112,0.0,0.0,96,0.00,,---,0.00,VWS V14.01,2013-07-22 07:30:00,
2013-07-22 03:00:00,54.7,53.9,29.77,ESE,112,0.0,0.0,97,0.00,,---,0.00,VWS V14.01,2013-07-22 08:00:00,
2013-07-22 03:30:00,55.6,54.8,29.75,ESE,112,0.0,0.0,97,0.00,,---,0.00,VWS V14.01,2013-07-22 08:30:00,
2013-07-22 04:00:00,55.8,55.0,29.74,ESE,112,0.0,0.0,97,0.00,,---,0.00,VWS V14.01,2013-07-22 09:00:00,
2013-07-22 04:30:00,55.8,55.0,29.73,ESE,112,0.0,0.0,97,0.00,,---,0.00,VWS V14.01,2013-07-22 09:30:00,
2013-07-22 05:00:00,55.9,55.1,29.74,ESE,112,0.0,0.0,97,0.00,,---,0.00,VWS V14.01,2013-07-22 10:00:00,
2013-07-22 05:30:00,56.3,55.5,29.73,ESE,112,0.0,0.0,97,0.00,,---,0.00,VWS V14.01,2013-07-22 10:30:00,
2013-07-22 06:00:00,56.7,55.9,29.74,ESE,112,0.0,5.0,97,0.00,,---,0.00,VWS V14.01,2013-07-22 11:00:00,
2013-07-22 06:30:00,56.6,55.8,29.74,SE,135,1.0,4.0,97,0.00,,---,0.00,VWS V14.01,2013-07-22 11:30:00,
2013-07-22 07:00:00,56.9,56.1,29.73,SE,135,1.0,4.0,97,0.00,,---,0.00,VWS V14.01,2013-07-22 12:00:00,
2013-07-22 07:30:00,57.4,56.6,29.72,SE,135,0.0,0.0,97,0.00,,---,0.00,VWS V14.01,2013-07-22 12:30:00,
2013-07-22 08:00:00,58.3,57.5,29.71,SSE,158,0.0,2.0,97,0.00,,---,0.00,VWS V14.01,2013-07-22 13:00:00,
2013-07-22 08:30:00,59.9,58.8,29.70,ESE,112,0.0,5.0,96,0.00,,---,0.00,VWS V14.01,2013-07-22 13:30:00,
2013-07-22 09:00:00,61.8,60.1,29.70,WSW,248,1.0,5.0,94,0.00,,---,0.00,VWS V14.01,2013-07-22 14:00:00,
2013-07-22 09:30:00,64.9,61.9,29.68,SSW,202,1.0,7.0,90,0.00,,---,0.00,VWS V14.01,2013-07-22 14:30:00,
2013-07-22 10:00:00,67.8,63.5,29.68,SSE,158,2.0,7.0,86,0.00,,---,0.00,VWS V14.01,2013-07-22 15:00:00,
2013-07-22 10:30:00,70.1,64.4,29.66,SSE,158,2.0,7.0,82,0.00,,---,0.00,VWS V14.01,2013-07-22 15:30:00,
2013-07-22 11:00:00,71.5,64.3,29.66,SSE,158,2.0,8.0,78,0.00,,---,0.00,VWS V14.01,2013-07-22 16:00:00,
2013-07-22 11:30:00,72.8,64.4,29.64,SSE,158,3.0,10.0,75,0.00,,---,0.00,VWS V14.01,2013-07-22 16:30:00,
2013-07-22 12:00:00,73.6,64.8,29.63,SSE,158,3.0,9.0,74,0.00,,---,0.00,VWS V14.01,2013-07-22 17:00:00,
2013-07-22 12:30:00,76.4,66.3,29.63,SSE,158,3.0,11.0,71,0.00,,---,0.00,VWS V14.01,2013-07-22 17:30:00,
2013-07-22 13:00:00,78.6,66.7,29.61,SSE,158,3.0,10.0,67,0.00,,---,0.00,VWS V14.01,2013-07-22 18:00:00,
2013-07-22 13:30:00,80.2,66.5,29.60,SSE,158,3.0,10.0,63,0.00,,---,0.00,VWS V14.01,2013-07-22 18:30:00,
2013-07-22 14:00:00,78.7,66.0,29.60,WSW,248,3.0,9.0,65,0.00,,---,0.00,VWS V14.01,2013-07-22 19:00:00,
2013-07-22 14:30:00,78.6,65.4,29.59,West,270,2.0,8.0,64,0.00,,---,0.00,VWS V14.01,2013-07-22 19:30:00,
2013-07-22 15:17:00,81.0,68.1,29.57,SE,144,2.0,4.0,65,0.00,,---,0.00,VWS V14.01,2013-07-22 20:17:00,
2013-07-22 15:22:00,81.2,68.3,29.57,West,268,3.0,8.0,65,0.00,,---,0.00,VWS V14.01,2013-07-22 20:22:00,
2013-07-22 15:27:00,81.1,68.7,29.57,SW,230,0.0,8.0,66,0.00,,---,0.00,VWS V14.01,2013-07-22 20:27:00,
2013-07-22 15:30:00,81.4,69.0,29.57,WSW,255,2.0,8.0,66,0.00,,---,0.00,VWS V14.01,2013-07-22 20:30:00,
2013-07-22 15:32:00,81.6,69.2,29.57,ESE,121,3.0,7.0,66,0.00,,---,0.00,VWS V14.01,2013-07-22 20:32:00,
2013-07-22 15:37:00,81.7,69.2,29.57,WSW,254,3.0,5.0,66,0.00,,---,0.00,VWS V14.01,2013-07-22 20:37:00,
2013-07-22 15:42:00,81.7,68.8,29.57,West,263,1.0,10.0,65,0.00,,---,0.00,VWS V14.01,2013-07-22 20:42:00,
2013-07-22 15:43:00,81.6,68.7,29.57,South,175,9.0,10.0,65,0.00,,---,0.00,VWS V14.01,2013-07-22 20:43:00,
2013-07-22 15:49:00,81.7,69.7,29.56,SSE,148,1.0,10.0,67,0.00,,---,0.00,VWS V14.01,2013-07-22 20:49:00,
2013-07-22 15:54:00,81.8,69.3,29.56,SW,222,3.0,10.0,66,0.00,,---,0.00,VWS V14.01,2013-07-22 20:54:00,
2013-07-22 15:59:00,81.8,69.8,29.56,West,277,1.0,10.0,67,0.00,,---,0.00,VWS V14.01,2013-07-22 20:59:00,
2013-07-22 16:04:00,82.1,69.6,29.55,SE,132,6.0,7.0,66,0.00,,---,0.00,VWS V14.01,2013-07-22 21:04:00,
2013-07-22 16:09:00,81.8,69.3,29.55,West,269,4.0,8.0,66,0.00,,---,0.00,VWS V14.01,2013-07-22 21:09:00,
2013-07-22 16:14:00,81.9,69.9,29.55,WSW,254,2.0,8.0,67,0.00,,---,0.00,VWS V14.01,2013-07-22 21:14:00,
2013-07-22 16:19:00,81.9,69.9,29.54,South,174,1.0,8.0,67,0.00,,---,0.00,VWS V14.01,2013-07-22 21:19:00,
2013-07-22 16:24:00,81.4,69.4,29.54,SSW,213,4.0,8.0,67,0.00,,---,0.00,VWS V14.01,2013-07-22 21:24:00,
2013-07-22 16:29:00,81.1,69.6,29.54,SSE,167,2.0,8.0,68,0.00,,---,0.00,VWS V14.01,2013-07-22 21:29:00,
2013-07-22 16:34:00,81.3,70.2,29.54,SW,218,4.0,4.0,69,0.00,,---,0.00,VWS V14.01,2013-07-22 21:34:00,
2013-07-22 16:39:00,80.9,69.8,29.54,SW,224,5.0,8.0,69,0.00,,---,0.00,VWS V14.01,2013-07-22 21:39:00,
2013-07-22 16:44:00,81.2,70.5,29.55,SE,146,2.0,8.0,70,0.00,,---,0.00,VWS V14.01,2013-07-22 21:44:00,
2013-07-22 16:49:00,81.8,70.6,29.55,West,277,2.0,8.0,69,0.00,,---,0.00,VWS V14.01,2013-07-22 21:49:00,
2013-07-22 16:54:00,81.7,70.6,29.55,SSE,163,2.0,8.0,69,0.00,,---,0.00,VWS V14.01,2013-07-22 21:54:00,
2013-07-22 16:59:00,81.6,70.4,29.54,SSE,156,4.0,8.0,69,0.00,,---,0.00,VWS V14.01,2013-07-22 21:59:00,
2013-07-22 17:04:00,80.5,70.2,29.54,WSW,241,1.0,6.0,71,0.00,,---,0.00,VWS V14.01,2013-07-22 22:04:00,
2013-07-22 17:09:00,80.5,70.7,29.54,West,269,2.0,6.0,72,0.00,,---,0.00,VWS V14.01,2013-07-22 22:09:00,
2013-07-22 17:14:00,80.3,70.9,29.54,SSW,210,1.0,7.0,73,0.00,,---,0.00,VWS V14.01,2013-07-22 22:14:00,
2013-07-22 17:20:00,80.5,71.1,29.54,SSW,203,1.0,7.0,73,0.00,,---,0.00,VWS V14.01,2013-07-22 22:20:00,
2013-07-22 17:25:00,80.7,70.8,29.54,SW,221,5.0,7.0,72,0.00,,---,0.00,VWS V14.01,2013-07-22 22:25:00,
2013-07-22 17:30:00,80.5,70.7,29.54,SSW,202,3.0,7.0,72,0.00,,---,0.00,VWS V14.01,2013-07-22 22:30:00,
2013-07-22 17:35:00,80.0,70.2,29.54,SSE,162,2.0,3.0,72,0.00,,---,0.00,VWS V14.01,2013-07-22 22:35:00,
2013-07-22 17:40:00,79.7,69.9,29.54,West,265,1.0,5.0,72,0.00,,---,0.00,VWS V14.01,2013-07-22 22:40:00,
2013-07-22 17:45:00,79.9,70.5,29.52,West,277,1.0,5.0,73,0.00,,---,0.00,VWS V14.01,2013-07-22 22:45:00,
2013-07-22 17:50:00,80.0,70.6,29.52,SSE,167,3.0,11.0,73,0.00,,---,0.00,VWS V14.01,2013-07-22 22:50:00,
2013-07-22 17:55:00,79.9,70.9,29.52,WSW,250,2.0,11.0,74,0.00,,---,0.00,VWS V14.01,2013-07-22 22:55:00,
2013-07-22 18:00:00,79.4,70.8,29.52,SW,232,2.0,11.0,75,0.00,,---,0.00,VWS V14.01,2013-07-22 23:00:00,
2013-07-22 18:05:00,79.6,71.0,29.52,WSW,241,2.0,5.0,75,0.00,,---,0.00,VWS V14.01,2013-07-22 23:05:00,
2013-07-22 18:10:00,79.8,70.8,29.52,WSW,244,2.0,5.0,74,0.00,,---,0.00,VWS V14.01,2013-07-22 23:10:00,
2013-07-22 18:15:00,79.8,71.2,29.52,SW,232,1.0,5.0,75,0.00,,---,0.00,VWS V14.01,2013-07-22 23:15:00,
2013-07-22 18:20:00,79.5,71.3,29.52,SSE,160,2.0,6.0,76,0.00,,---,0.00,VWS V14.01,2013-07-22 23:20:00,
2013-07-22 18:25:00,79.1,71.3,29.52,WSW,237,2.0,6.0,77,0.00,,---,0.00,VWS V14.01,2013-07-22 23:25:00,
2013-07-22 18:30:00,78.7,70.9,29.51,SSE,155,1.0,3.0,77,0.00,,---,0.00,VWS V14.01,2013-07-22 23:30:00,
2013-07-22 18:36:00,78.3,71.3,29.51,SSW,211,2.0,7.0,79,0.00,,---,0.00,VWS V14.01,2013-07-22 23:36:00,
2013-07-22 18:41:00,78.0,71.3,29.51,WSW,255,0.0,7.0,80,0.00,,---,0.00,VWS V14.01,2013-07-22 23:41:00,
2013-07-22 18:46:00,77.7,71.0,29.50,NW,306,1.0,7.0,80,0.00,,---,0.00,VWS V14.01,2013-07-22 23:46:00,
2013-07-22 18:51:00,77.4,71.1,29.50,SE,133,0.0,7.0,81,0.00,,---,0.00,VWS V14.01,2013-07-22 23:51:00,
2013-07-22 18:56:00,77.2,71.3,29.50,West,266,1.0,7.0,82,0.00,,---,0.00,VWS V14.01,2013-07-22 23:56:00,
2013-07-22 19:01:00,76.5,72.0,29.53,West,269,0.0,3.0,86,0.01,,---,0.01,VWS V14.01,2013-07-23 00:01:00,
2013-07-22 19:06:00,75.2,71.4,29.53,WNW,290,3.0,3.0,88,0.03,,---,0.03,VWS V14.01,2013-07-23 00:06:00,
2013-07-22 19:11:00,73.6,70.2,29.53,West,269,3.0,6.0,89,0.08,,---,0.08,VWS V14.01,2013-07-23 00:11:00,
2013-07-22 19:16:00,72.0,69.6,29.57,WNW,286,3.0,8.0,92,0.21,,---,0.21,VWS V14.01,2013-07-23 00:16:00,
2013-07-22 19:21:00,70.5,68.1,29.57,WSW,242,2.0,11.0,92,0.29,,---,0.29,VWS V14.01,2013-07-23 00:21:00,
2013-07-22 19:26:00,69.5,67.4,29.57,West,266,1.0,11.0,93,0.32,,---,0.32,VWS V14.01,2013-07-23 00:26:00,
2013-07-22 19:32:00,69.0,67.2,29.56,West,277,0.0,2.0,94,0.32,,---,0.32,VWS V14.01,2013-07-23 00:32:00,
2013-07-22 19:37:00,68.9,67.4,29.56,WSW,250,1.0,2.0,95,0.32,,---,0.32,VWS V14.01,2013-07-23 00:37:00,
2013-07-22 19:42:00,68.9,67.7,29.56,West,279,6.0,6.0,96,0.32,,---,0.32,VWS V14.01,2013-07-23 00:42:00,
2013-07-22 19:47:00,68.8,67.3,29.57,WNW,287,3.0,6.0,95,0.32,,---,0.32,VWS V14.01,2013-07-23 00:47:00,
2013-07-22 19:52:00,68.5,67.0,29.57,West,260,2.0,6.0,95,0.32,,---,0.32,VWS V14.01,2013-07-23 00:52:00,
2013-07-22 19:57:00,68.2,66.1,29.57,WNW,283,3.0,9.0,93,0.32,,---,0.32,VWS V14.01,2013-07-23 00:57:00,
2013-07-22 20:02:00,68.0,65.9,29.55,West,281,2.0,5.0,93,0.31,,---,0.32,VWS V14.01,2013-07-23 01:02:00,
2013-07-22 20:07:00,67.7,65.6,29.55,WNW,295,1.0,6.0,93,0.32,,---,0.33,VWS V14.01,2013-07-23 01:07:00,
2013-07-22 20:12:00,67.6,66.1,29.55,WNW,299,0.0,6.0,95,0.33,,---,0.34,VWS V14.01,2013-07-23 01:12:00,
2013-07-22 20:17:00,67.5,66.0,29.56,West,269,0.0,6.0,95,0.33,,---,0.34,VWS V14.01,2013-07-23 01:17:00,
2013-07-22 20:22:00,67.3,66.1,29.56,WNW,286,2.0,6.0,96,0.33,,---,0.34,VWS V14.01,2013-07-23 01:22:00,
2013-07-22 20:27:00,67.3,66.1,29.56,West,276,1.0,6.0,96,0.33,,---,0.34,VWS V14.01,2013-07-23 01:27:00,
2013-07-22 20:32:00,67.3,66.1,29.56,West,271,0.0,1.0,96,0.02,,---,0.34,VWS V14.01,2013-07-23 01:32:00,
2013-07-22 20:37:00,67.3,66.1,29.56,West,271,0.0,1.0,96,0.02,,---,0.34,VWS V14.01,2013-07-23 01:37:00,
2013-07-22 20:42:00,67.3,66.1,29.56,NNE,22,0.0,1.0,96,0.02,,---,0.34,VWS V14.01,2013-07-23 01:42:00,
2013-07-22 20:48:00,67.2,66.0,29.57,WSW,250,0.0,2.0,96,0.02,,---,0.34,VWS V14.01,2013-07-23 01:48:00,
2013-07-22 20:53:00,67.0,65.8,29.57,NE,41,0.0,2.0,96,0.02,,---,0.34,VWS V14.01,2013-07-23 01:53:00,
2013-07-22 20:58:00,66.6,65.1,29.57,WSW,250,1.0,2.0,95,0.02,,---,0.34,VWS V14.01,2013-07-23 01:58:00,
2013-07-22 21:03:00,66.1,64.6,29.58,East,94,0.0,2.0,95,0.02,,---,0.34,VWS V14.01,2013-07-23 02:03:00,
2013-07-22 21:08:00,65.7,63.9,29.58,ENE,58,2.0,5.0,94,0.02,,---,0.34,VWS V14.01,2013-07-23 02:08:00,
2013-07-22 21:13:00,65.2,63.1,29.58,SW,232,1.0,5.0,93,0.02,,---,0.34,VWS V14.01,2013-07-23 02:13:00,
2013-07-22 21:18:00,64.8,62.7,29.60,ESE,111,0.0,5.0,93,0.02,,---,0.34,VWS V14.01,2013-07-23 02:18:00,
2013-07-22 21:23:00,64.5,62.7,29.60,ESE,111,0.0,5.0,94,0.02,,---,0.34,VWS V14.01,2013-07-23 02:23:00,
2013-07-22 21:28:00,64.1,62.3,29.60,ESE,111,0.0,5.0,94,0.02,,---,0.34,VWS V14.01,2013-07-23 02:28:00,
2013-07-22 21:33:00,63.8,62.0,29.61,ESE,111,0.0,0.0,94,0.00,,---,0.34,VWS V14.01,2013-07-23 02:33:00,
2013-07-22 21:38:00,63.5,62.0,29.61,ESE,111,0.0,0.0,95,0.00,,---,0.34,VWS V14.01,2013-07-23 02:38:00,
2013-07-22 21:43:00,63.3,61.8,29.61,ESE,108,0.0,0.0,95,0.00,,---,0.34,VWS V14.01,2013-07-23 02:43:00,
2013-07-22 21:48:00,63.0,61.5,29.61,ESE,111,0.0,0.0,95,0.00,,---,0.34,VWS V14.01,2013-07-23 02:48:00,
2013-07-22 21:53:00,62.7,61.2,29.61,ESE,111,0.0,0.0,95,0.00,,---,0.34,VWS V14.01,2013-07-23 02:53:00,
2013-07-22 21:58:00,62.4,61.0,29.61,ESE,111,0.0,0.0,95,0.00,,---,0.34,VWS V14.01,2013-07-23 02:58:00,
2013-07-22 22:03:00,62.1,61.0,29.62,ESE,111,0.0,0.0,96,0.00,,---,0.34,VWS V14.01,2013-07-23 03:03:00,
2013-07-22 22:08:00,61.9,60.8,29.62,ESE,111,0.0,0.0,96,0.00,,---,0.34,VWS V14.01,2013-07-23 03:08:00,
2013-07-22 22:14:00,61.6,60.5,29.62,ESE,111,0.0,0.0,96,0.00,,---,0.34,VWS V14.01,2013-07-23 03:14:00,
2013-07-22 22:19:00,61.4,60.2,29.63,ESE,110,0.0,0.0,96,0.00,,---,0.34,VWS V14.01,2013-07-23 03:19:00,
2013-07-22 22:24:00,61.2,60.0,29.63,ESE,110,0.0,0.0,96,0.00,,---,0.34,VWS V14.01,2013-07-23 03:24:00,
2013-07-22 22:29:00,60.9,59.8,29.63,ESE,111,0.0,0.0,96,0.00,,---,0.34,VWS V14.01,2013-07-23 03:29:00,
2013-07-22 22:34:00,60.7,59.6,29.63,ESE,110,0.0,0.0,96,0.00,,---,0.34,VWS V14.01,2013-07-23 03:34:00,
2013-07-22 22:39:00,60.5,59.4,29.63,ESE,111,0.0,0.0,96,0.00,,---,0.34,VWS V14.01,2013-07-23 03:39:00,
2013-07-22 22:44:00,60.4,59.3,29.63,ESE,110,0.0,0.0,96,0.00,,---,0.34,VWS V14.01,2013-07-23 03:44:00,
2013-07-22 22:49:00,60.2,59.3,29.63,ESE,110,0.0,0.0,97,0.00,,---,0.34,VWS V14.01,2013-07-23 03:49:00,
2013-07-22 22:54:00,60.4,59.5,29.63,ESE,111,0.0,0.0,97,0.00,,---,0.34,VWS V14.01,2013-07-23 03:54:00,
2013-07-22 22:59:00,60.4,59.5,29.64,ESE,111,0.0,0.0,97,0.00,,---,0.34,VWS V14.01,2013-07-23 03:59:00,
2013-07-22 23:01:00,60.4,59.5,29.64,ESE,111,0.0,0.0,97,0.00,,---,0.34,VWS V14.01,2013-07-23 04:01:00,
2013-07-22 23:02:00,60.3,59.5,29.64,ESE,110,0.0,0.0,97,0.01,,---,0.35,VWS V14.01,2013-07-23 04:02:00,
2013-07-22 23:03:00,60.3,59.5,29.64,ESE,111,0.0,0.0,97,0.01,,---,0.35,VWS V14.01,2013-07-23 04:03:00,
2013-07-22 23:05:00,60.3,59.5,29.64,ESE,110,0.0,0.0,97,0.01,,---,0.35,VWS V14.01,2013-07-23 04:05:00,
2013-07-22 23:10:00,60.2,59.3,29.64,ESE,111,0.0,0.0,97,0.01,,---,0.35,VWS V14.01,2013-07-23 04:10:00,
2013-07-22 23:15:00,60.0,59.2,29.64,ESE,111,0.0,0.0,97,0.01,,---,0.35,VWS V14.01,2013-07-23 04:15:00,
2013-07-22 23:20:00,60.0,59.2,29.64,ESE,111,0.0,0.0,97,0.01,,---,0.35,VWS V14.01,2013-07-23 04:20:00,
2013-07-22 23:25:00,60.0,59.2,29.64,ESE,112,0.0,0.0,97,0.01,,---,0.35,VWS V14.01,2013-07-23 04:25:00,
2013-07-22 23:30:00,59.8,59.0,29.65,ESE,111,0.0,0.0,97,0.01,,---,0.35,VWS V14.01,2013-07-23 04:30:00,
2013-07-22 23:35:00,59.6,58.8,29.65,ESE,111,0.0,0.0,97,0.01,,---,0.35,VWS V14.01,2013-07-23 04:35:00,
2013-07-22 23:40:00,59.4,58.5,29.65,ESE,111,0.0,0.0,97,0.01,,---,0.35,VWS V14.01,2013-07-23 04:40:00,
2013-07-22 23:45:00,59.1,58.2,29.65,ESE,111,0.0,0.0,97,0.01,,---,0.35,VWS V14.01,2013-07-23 04:45:00,
2013-07-22 23:50:00,59.0,58.2,29.65,South,187,0.0,1.0,97,0.01,,---,0.35,VWS V14.01,2013-07-23 04:50:00,
2013-07-22 23:56:00,59.0,58.2,29.65,NW,304,0.0,2.0,97,0.01,,---,0.35,VWS V14.01,2013-07-23 04:56:00,